Time;durP1;ratioP1;P1;durP2;ratioP2;P2;SDS_P1;SDS_P2;PMS_P1;PMS_P2;Temp;Humidity;BMP_temperature;BMP_pressure;BME280_temperature;BME280_humidity;BME280_pressure;Samples;Min_cycle;Max_cycle;Signal;HPM_P1;HPM_P2
2022/02/25 00:08:16;;;;;;;7.7;13.5;;;;;;;5.8;51.6;98400;;;;
2022/02/25 00:19:16;;;;;;;5.3;10.6;;;;;;;5.9;51.1;98380;;;;
2022/02/25 00:30:16;;;;;;;5.3;10.6;;;;;;;5.8;51.2;98380;;;;
2022/02/25 00:40:16;;;;;;;5.3;10.6;;;;;;;5.6;51.4;98370;;;;
2022/02/25 00:51:16;;;;;;;3.8;7.3;;;;;;;5.2;52;98370;;;;
2022/02/25 01:02:16;;;;;;;3.8;7.3;;;;;;;4.9;52.9;98350;;;;
2022/02/25 01:12:16;;;;;;;3.8;7.3;;;;;;;4.6;53.9;98340;;;;
2022/02/25 01:22:16;;;;;;;5.4;9.7;;;;;;;4.5;54.4;98350;;;;
2022/02/25 01:32:16;;;;;;;5.4;9.7;;;;;;;4.2;56;98350;;;;
2022/02/25 01:43:16;;;;;;;9.2;13.9;;;;;;;4.1;57;98330;;;;
2022/02/25 01:53:19;;;;;;;9.2;13.9;;;;;;;4.2;57.9;98330;;;;
2022/02/25 02:04:16;;;;;;;9.2;13.9;;;;;;;4.9;57.2;98310;;;;
2022/02/25 02:14:17;;;;;;;6.1;11.6;;;;;;;5.4;56.6;98330;;;;
2022/02/25 02:25:16;;;;;;;6.1;11.6;;;;;;;5.9;55.5;98320;;;;
2022/02/25 02:35:16;;;;;;;6.1;11.6;;;;;;;6.6;53.3;98320;;;;
2022/02/25 02:45:16;;;;;;;4.1;8.2;;;;;;;6.9;52.5;98320;;;;
2022/02/25 02:56:17;;;;;;;4.1;8.2;;;;;;;7;52.2;98330;;;;
2022/02/25 03:07:16;;;;;;;4.1;8.2;;;;;;;6.9;52.3;98340;;;;
2022/02/25 03:17:16;;;;;;;3.1;6.2;;;;;;;6.9;52.1;98350;;;;
2022/02/25 03:28:16;;;;;;;3.1;6.2;;;;;;;6.6;53;98350;;;;
2022/02/25 03:39:16;;;;;;;3.1;6.2;;;;;;;6.6;53.2;98360;;;;
2022/02/25 03:49:16;;;;;;;4.2;6.6;;;;;;;6.3;53.8;98350;;;;
2022/02/25 03:59:16;;;;;;;4.2;6.6;;;;;;;6.1;54.3;98350;;;;
2022/02/25 04:09:18;;;;;;;4.2;6.6;;;;;;;6.1;54.3;98380;;;;
2022/02/25 04:20:16;;;;;;;3.6;7.5;;;;;;;5.8;55.1;98390;;;;
2022/02/25 04:31:16;;;;;;;3.6;7.5;;;;;;;5.8;55.2;98390;;;;
2022/02/25 04:41:16;;;;;;;3.6;7.5;;;;;;;5.7;55.8;98400;;;;
2022/02/25 04:51:16;;;;;;;3.2;5.7;;;;;;;6;55;98400;;;;
2022/02/25 05:01:16;;;;;;;3.2;5.7;;;;;;;5.8;55.6;98410;;;;
2022/02/25 05:11:17;;;;;;;3.2;5.7;;;;;;;5.9;55.8;98430;;;;
2022/02/25 05:21:16;;;;;;;4.7;8.7;;;;;;;6.1;55.5;98450;;;;
2022/02/25 05:32:16;;;;;;;4.7;8.7;;;;;;;6.1;55.8;98470;;;;
2022/02/25 05:42:16;;;;;;;4.7;8.7;;;;;;;6.2;56.2;98480;;;;
2022/02/25 05:52:16;;;;;;;4.3;8.3;;;;;;;6.3;56.5;98500;;;;
2022/02/25 06:03:16;;;;;;;4.3;8.3;;;;;;;6.5;56.3;98530;;;;
2022/02/25 06:14:17;;;;;;;5.8;11.1;;;;;;;6.7;56;98530;;;;
2022/02/25 06:24:16;;;;;;;5.8;11.1;;;;;;;6.7;56.7;98560;;;;
2022/02/25 06:34:16;;;;;;;5.8;11.1;;;;;;;6.6;57.8;98570;;;;
2022/02/25 06:45:16;;;;;;;8.6;14.5;;;;;;;6.6;59.3;98610;;;;
2022/02/25 06:55:16;;;;;;;8.6;14.5;;;;;;;6.5;60.5;98640;;;;
2022/02/25 07:05:16;;;;;;;8.6;14.5;;;;;;;6.3;62.3;98690;;;;
2022/02/25 07:16:16;;;;;;;7.5;10.9;;;;;;;6;66.5;98750;;;;
2022/02/25 07:26:16;;;;;;;7.5;10.9;;;;;;;5.5;70.9;98790;;;;
2022/02/25 07:36:17;;;;;;;7.5;10.9;;;;;;;3.6;76.7;98840;;;;
2022/02/25 07:46:16;;;;;;;3.5;6.4;;;;;;;3.4;79.1;98850;;;;
2022/02/25 07:57:18;;;;;;;3.5;6.4;;;;;;;3.4;79.8;98880;;;;
2022/02/25 08:07:16;;;;;;;3.5;6.4;;;;;;;3.5;79.7;98890;;;;
2022/02/25 08:17:16;;;;;;;5.1;6.9;;;;;;;3.4;79.6;98910;;;;
2022/02/25 08:27:16;;;;;;;5.1;6.9;;;;;;;3.5;80.5;98910;;;;
2022/02/25 08:38:17;;;;;;;5.1;6.9;;;;;;;3.7;80.6;98910;;;;
2022/02/25 08:48:16;;;;;;;7.8;12.6;;;;;;;3.9;80;98930;;;;
2022/02/25 08:59:16;;;;;;;7.8;12.6;;;;;;;3.9;79.5;98930;;;;
2022/02/25 09:10:16;;;;;;;7.8;12.6;;;;;;;3.8;79.9;98960;;;;
2022/02/25 09:20:16;;;;;;;6.7;11.3;;;;;;;3.5;80.2;98970;;;;
2022/02/25 09:30:16;;;;;;;6.7;11.3;;;;;;;3.5;80.4;98980;;;;
2022/02/25 09:41:16;;;;;;;6.7;11.3;;;;;;;4.2;79.4;98990;;;;
2022/02/25 09:51:16;;;;;;;9.4;13.8;;;;;;;4.5;77.3;99000;;;;
2022/02/25 10:01:18;;;;;;;9.4;13.8;;;;;;;4.9;75.9;99000;;;;
2022/02/25 10:12:16;;;;;;;9.5;13.9;;;;;;;5.2;74.6;99000;;;;
2022/02/25 10:22:16;;;;;;;9.5;13.9;;;;;;;5.5;72.9;99010;;;;
2022/02/25 10:33:16;;;;;;;9.5;13.9;;;;;;;5.3;72.4;99010;;;;
2022/02/25 10:43:16;;;;;;;9.9;13.3;;;;;;;4.9;73.1;99010;;;;
2022/02/25 10:53:18;;;;;;;9.9;13.3;;;;;;;4.8;74;99020;;;;
2022/02/25 11:04:18;;;;;;;9.9;13.3;;;;;;;4.6;74.1;99030;;;;
2022/02/25 11:14:16;;;;;;;7.3;9.7;;;;;;;4.6;74.4;99040;;;;
2022/02/25 11:25:16;;;;;;;7.3;9.7;;;;;;;5.1;72.7;99030;;;;
2022/02/25 11:36:17;;;;;;;7.3;9.7;;;;;;;5.3;70.6;99030;;;;
2022/02/25 11:46:16;;;;;;;7.7;10.2;;;;;;;5.6;70.7;99020;;;;
2022/02/25 11:56:16;;;;;;;7.7;10.2;;;;;;;5.6;68.5;99020;;;;
2022/02/25 12:06:16;;;;;;;7.7;10.2;;;;;;;5.3;69.5;99010;;;;
2022/02/25 12:17:16;;;;;;;7.1;12;;;;;;;5.9;67.7;99030;;;;
2022/02/25 12:28:16;;;;;;;7.1;12;;;;;;;6;69.3;99020;;;;
2022/02/25 12:38:16;;;;;;;7.1;12;;;;;;;7;63.4;99030;;;;
2022/02/25 12:48:17;;;;;;;6;8.3;;;;;;;6.5;63;99040;;;;
2022/02/25 12:58:16;;;;;;;6;8.3;;;;;;;6.8;58.7;99040;;;;
2022/02/25 13:09:16;;;;;;;6;8.3;;;;;;;7.4;60.2;99020;;;;
2022/02/25 13:19:16;;;;;;;6.2;12.2;;;;;;;7.2;58.4;99020;;;;
2022/02/25 13:29:16;;;;;;;6.2;12.2;;;;;;;7.2;60;99010;;;;
2022/02/25 13:40:16;;;;;;;6.2;12.2;;;;;;;7.8;59.7;99010;;;;
2022/02/25 14:00:16;;;;;;;7.6;11.4;;;;;;;8.3;54.9;99000;;;;
2022/02/25 14:10:16;;;;;;;7.6;11.4;;;;;;;8.1;52.4;99000;;;;
2022/02/25 14:21:16;;;;;;;5.4;9.3;;;;;;;7.5;51;99010;;;;
2022/02/25 14:32:16;;;;;;;5.4;9.3;;;;;;;7.1;48;99020;;;;
2022/02/25 14:42:17;;;;;;;3.9;9;;;;;;;6.6;48.4;99030;;;;
2022/02/25 14:53:16;;;;;;;3.9;9;;;;;;;6.4;49.1;99020;;;;
2022/02/25 15:03:16;;;;;;;3.9;9;;;;;;;6.2;50.4;99030;;;;
2022/02/25 15:13:16;;;;;;;3.2;6;;;;;;;6;49.6;99040;;;;
2022/02/25 15:23:16;;;;;;;3.2;6;;;;;;;5.8;50.2;99050;;;;
2022/02/25 15:33:17;;;;;;;3.2;6;;;;;;;5.4;50.9;99060;;;;
2022/02/25 15:44:16;;;;;;;5.2;10.3;;;;;;;5;52.3;99080;;;;
2022/02/25 15:54:17;;;;;;;5.2;10.3;;;;;;;4.6;55;99100;;;;
2022/02/25 16:05:17;;;;;;;5.2;10.3;;;;;;;4.4;55.7;99100;;;;
2022/02/25 16:15:16;;;;;;;7.7;17.1;;;;;;;4.1;56.8;99120;;;;
2022/02/25 16:25:17;;;;;;;7.7;17.1;;;;;;;3.6;58;99140;;;;
2022/02/25 16:36:17;;;;;;;7.7;17.1;;;;;;;3.3;62.3;99150;;;;
2022/02/25 16:46:17;;;;;;;11.5;17.4;;;;;;;3.2;69.4;99170;;;;
2022/02/25 16:57:16;;;;;;;11.5;17.4;;;;;;;3;71.4;99170;;;;
2022/02/25 17:07:17;;;;;;;11.5;17.4;;;;;;;2.8;73.8;99190;;;;
2022/02/25 17:18:16;;;;;;;15.3;21.7;;;;;;;2.7;74.5;99190;;;;
2022/02/25 17:28:17;;;;;;;15.3;21.7;;;;;;;2.6;74.6;99200;;;;
2022/02/25 17:38:17;;;;;;;15.3;21.7;;;;;;;2.5;74.6;99200;;;;
2022/02/25 17:49:17;;;;;;;14.2;19.5;;;;;;;2.3;75.5;99210;;;;
2022/02/25 17:59:17;;;;;;;14.2;19.5;;;;;;;2.2;75.7;99230;;;;
2022/02/25 18:09:16;;;;;;;14.2;19.5;;;;;;;2;76.4;99240;;;;
2022/02/25 18:19:16;;;;;;;17.6;20.1;;;;;;;1.7;76.2;99250;;;;
2022/02/25 18:29:16;;;;;;;17.6;20.1;;;;;;;1.5;77.3;99260;;;;
2022/02/25 18:40:17;;;;;;;17.6;20.1;;;;;;;1.2;77.3;99270;;;;
2022/02/25 18:50:17;;;;;;;23.3;28;;;;;;;1.2;78.3;99280;;;;
2022/02/25 19:01:17;;;;;;;23.3;28;;;;;;;0.9;77.6;99290;;;;
2022/02/25 19:11:17;;;;;;;31.2;41.4;;;;;;;0.7;77.6;99280;;;;
2022/02/25 19:21:16;;;;;;;31.2;41.4;;;;;;;0.4;77.5;99300;;;;
2022/02/25 19:32:17;;;;;;;31.2;41.4;;;;;;;0.1;77.8;99320;;;;
2022/02/25 19:42:17;;;;;;;30.1;34.2;;;;;;;-0.1;78.1;99330;;;;
2022/02/25 19:52:17;;;;;;;30.1;34.2;;;;;;;-0.1;78.9;99340;;;;
2022/02/25 20:02:17;;;;;;;30.1;34.2;;;;;;;0;80.1;99350;;;;
2022/02/25 20:13:17;;;;;;;28;33.7;;;;;;;0;80;99370;;;;
2022/02/25 20:23:17;;;;;;;28;33.7;;;;;;;0.1;79.7;99380;;;;
2022/02/25 20:33:17;;;;;;;28;33.7;;;;;;;0;79.4;99390;;;;
2022/02/25 20:44:17;;;;;;;33.3;41;;;;;;;0.1;79.4;99400;;;;
2022/02/25 20:54:17;;;;;;;33.3;41;;;;;;;0.1;79.7;99400;;;;
2022/02/25 21:05:17;;;;;;;33.3;41;;;;;;;0;79.5;99410;;;;
2022/02/25 21:16:17;;;;;;;33.6;43.7;;;;;;;-0.2;78.6;99410;;;;
2022/02/25 21:27:17;;;;;;;33.6;43.7;;;;;;;-0.6;78.6;99410;;;;
2022/02/25 21:37:17;;;;;;;33.6;43.7;;;;;;;-0.8;78.8;99420;;;;
2022/02/25 21:47:17;;;;;;;30.6;37.9;;;;;;;-1;78.9;99420;;;;
2022/02/25 21:57:17;;;;;;;30.6;37.9;;;;;;;-1;80.2;99420;;;;
2022/02/25 22:07:17;;;;;;;30.6;37.9;;;;;;;-1.1;80.1;99420;;;;
2022/02/25 22:17:17;;;;;;;22.9;31.8;;;;;;;-1.2;80;99420;;;;
2022/02/25 22:28:17;;;;;;;22.9;31.8;;;;;;;-1.4;79.6;99410;;;;
2022/02/25 22:39:17;;;;;;;22.9;31.8;;;;;;;-1.5;80.5;99410;;;;
2022/02/25 22:49:17;;;;;;;26.2;31.8;;;;;;;-1.3;81.7;99420;;;;
2022/02/25 22:59:32;;;;;;;26.2;31.8;;;;;;;-1.4;81;99430;;;;
2022/02/25 23:09:17;;;;;;;26.2;31.8;;;;;;;-1.5;80.7;99440;;;;
2022/02/25 23:20:17;;;;;;;26.4;33.8;;;;;;;-1.4;81.4;99450;;;;
2022/02/25 23:30:17;;;;;;;26.4;33.8;;;;;;;-1.4;81.1;99450;;;;
2022/02/25 23:40:17;;;;;;;28.5;34.3;;;;;;;-1;81.1;99450;;;;
2022/02/25 23:50:17;;;;;;;28.5;34.3;;;;;;;-1;80.6;99460;;;;
